الديوانية, العراق

12:18 PM AST on مارس 29, 2015 (GMT +0300)
Al-ashraf Intl | | Change Station
CLOSE
Current Station
Airport
Location: Al-ashraf Intl,
Elevation: 105 ft
Nearby Weather Stations

Elev 105 ft 31.99 °N, 44.40 °E | Updated 9 minutes ago

Mostly Cloudy
غائم كلياً
73 °F
Feels Like 73 °F
N
14
ريح متغير ريح from ENE

هذا اليوم
High -- | Low -- °F
--% Chance of Precip.
Yesterday
High -- | Low -- °F
Precip. -- في
5:53 AM 6:17 PM
الأحدب الأول, 70% visible
الضغط 29.92 في
وضوح الرؤية 6.2 أميال
سحابات Few 3000 ft
غائم كلياً 8000 ft
نقطة الندى 57 °F
الرطوبة 57%
Rainfall 0.00 في
عمق الثلج Not available.
الأشعة فوق البنفسجية 6 out of 12
Pollen Not available.
جودة الهواء Not available.
Flu Activity Not available.
METAR ORNI 290909Z 07012KT 9999 FEW030CB BKN080 23/14 Q1013 TEMPO -TSSHRA

More Conditions Fewer Conditions

الضغط 29.92 في
وضوح الرؤية 6.2 أميال
سحابات Few 3000 ft
غائم كلياً 8000 ft
نقطة الندى 57 °F
الرطوبة 57%
Rainfall 0.00 في
عمق الثلج Not available.
الأشعة فوق البنفسجية 6 out of 12
Pollen Not available.
جودة الهواء Not available.
Flu Activity Not available.
METAR ORNI 290909Z 07012KT 9999 FEW030CB BKN080 23/14 Q1013 TEMPO -TSSHRA

More Conditions Fewer Conditions

10-Day Weather Forecast

Almanac

علم الفلك

Mar. 29, 2015 Rise Set
Actual Time
Civil Twilight
Nautical Twilight
Astronomical Twilight
قمر
Length Of Visible Light
طول الیوم
Tomorrow will be .
, % of the Moon is Illuminated

Today's Extremes

Country Highs Country Lows

Community

WunderPhotos

Upload Photos

1,809,187 photos uploaded!

WunderBlogs® & News

Nearby

جودة الهواء

  جودة الهواء AQ Index Pollutant
Not available.

عمق الثلج

Station Depth Elevation

Earthquake Activity

City Distance Mag. Time & Date
Minimum magnitude displayed is 2.5.

Coastal Water Temperatures

مكان درجات الحرارة

Stations

Nearby Weather Stations

Station Location الحرارة رياح باردة نقطة الندى الرطوبة ريح Precip. Elev تحديث Type